createdAt,value
2022-10-05T00:00:14.857Z,1015.43
2022-10-05T00:01:14.816Z,1015.42
2022-10-05T00:02:14.964Z,1015.44
2022-10-05T00:03:14.791Z,1015.42
2022-10-05T00:04:14.845Z,1015.46
2022-10-05T00:05:14.826Z,1015.48
2022-10-05T00:06:14.762Z,1015.40
2022-10-05T00:07:14.752Z,1015.44
2022-10-05T00:08:14.764Z,1015.42
2022-10-05T00:09:14.728Z,1015.43
2022-10-05T00:10:14.750Z,1015.45
2022-10-05T00:11:14.710Z,1015.42
2022-10-05T00:12:14.717Z,1015.38
2022-10-05T00:13:14.713Z,1015.41
2022-10-05T00:14:14.676Z,1015.36
2022-10-05T00:15:14.693Z,1015.33
2022-10-05T00:16:14.693Z,1015.26
2022-10-05T00:17:14.647Z,1015.29
2022-10-05T00:18:14.660Z,1015.26
2022-10-05T00:19:14.622Z,1015.33
2022-10-05T00:20:14.612Z,1015.40
2022-10-05T00:21:14.626Z,1015.42
2022-10-05T00:22:14.594Z,1015.43
2022-10-05T00:23:14.603Z,1015.38
2022-10-05T00:24:14.570Z,1015.38
2022-10-05T00:25:14.556Z,1015.39
2022-10-05T00:26:14.574Z,1015.42
2022-10-05T00:27:14.543Z,1015.36
2022-10-05T00:28:14.641Z,1015.31
2022-10-05T00:29:14.513Z,1015.35
2022-10-05T00:30:14.506Z,1015.35
2022-10-05T00:31:14.577Z,1015.37
2022-10-05T00:32:14.488Z,1015.38
2022-10-05T00:33:14.472Z,1015.37
2022-10-05T00:34:14.468Z,1015.43
2022-10-05T00:35:14.452Z,1015.40
2022-10-05T00:36:14.436Z,1015.36
2022-10-05T00:37:14.445Z,1015.25
2022-10-05T00:38:14.419Z,1015.29
2022-10-05T00:39:14.407Z,1015.33
2022-10-05T00:40:14.399Z,1015.31
2022-10-05T00:41:14.406Z,1015.35
2022-10-05T00:42:14.393Z,1015.36
2022-10-05T00:43:14.361Z,1015.28
2022-10-05T00:44:14.370Z,1015.32
2022-10-05T00:45:14.337Z,1015.33
2022-10-05T00:46:14.420Z,1015.28
2022-10-05T00:47:14.317Z,1015.14
2022-10-05T00:48:14.310Z,1015.12
2022-10-05T00:49:14.299Z,1015.09
2022-10-05T00:50:14.288Z,1015.18
2022-10-05T00:51:14.289Z,1015.14
2022-10-05T00:52:14.264Z,1015.23
2022-10-05T00:53:14.273Z,1015.13
2022-10-05T00:54:18.175Z,1015.17
2022-10-05T00:55:14.232Z,1015.16
2022-10-05T00:56:14.218Z,1015.11
2022-10-05T00:57:14.205Z,1015.11
2022-10-05T00:58:14.221Z,1015.09
2022-10-05T00:59:14.187Z,1015.08
2022-10-05T01:00:14.195Z,1014.98
2022-10-05T01:01:14.228Z,1014.99
2022-10-05T01:02:14.264Z,1014.97
2022-10-05T01:03:14.168Z,1015.04
2022-10-05T01:04:14.132Z,1015.01
2022-10-05T01:05:14.122Z,1015.01
2022-10-05T01:06:14.112Z,1015.04
2022-10-05T01:07:14.100Z,1015.00
2022-10-05T01:08:14.117Z,1014.98
2022-10-05T01:09:14.084Z,1014.98
2022-10-05T01:10:14.071Z,1015.06
2022-10-05T01:11:14.056Z,1015.04
2022-10-05T01:12:14.047Z,1015.04
2022-10-05T01:13:14.064Z,1015.02
2022-10-05T01:14:14.036Z,1015.04
2022-10-05T01:15:14.014Z,1015.09
2022-10-05T01:16:14.174Z,1015.08
2022-10-05T01:17:13.989Z,1015.08
2022-10-05T01:18:14.015Z,1015.08
2022-10-05T01:19:13.968Z,1015.08
2022-10-05T01:20:13.967Z,1015.05
2022-10-05T01:21:13.958Z,1015.01
2022-10-05T01:22:13.939Z,1014.96
2022-10-05T01:23:13.954Z,1014.95
2022-10-05T01:24:13.919Z,1014.88
2022-10-05T01:25:13.916Z,1014.93
2022-10-05T01:26:13.896Z,1014.86
2022-10-05T01:27:13.894Z,1014.85
2022-10-05T01:28:14.024Z,1014.80
2022-10-05T01:29:13.876Z,1014.74
2022-10-05T01:30:13.856Z,1014.79
2022-10-05T01:31:13.902Z,1014.84
2022-10-05T01:32:13.851Z,1014.84
2022-10-05T01:33:13.836Z,1014.89
2022-10-05T01:34:13.809Z,1014.95
2022-10-05T01:35:13.814Z,1014.89
2022-10-05T01:36:13.787Z,1015.02
2022-10-05T01:37:13.800Z,1014.98
2022-10-05T01:38:13.769Z,1014.91
2022-10-05T01:39:13.755Z,1014.95
2022-10-05T01:40:13.744Z,1014.88
2022-10-05T01:41:13.728Z,1014.92
2022-10-05T01:42:13.750Z,1014.93
2022-10-05T01:43:13.707Z,1014.95
2022-10-05T01:44:13.729Z,1014.97
2022-10-05T01:45:13.693Z,1014.95
2022-10-05T01:46:13.728Z,1014.88
2022-10-05T01:47:13.669Z,1014.89
2022-10-05T01:48:13.795Z,1014.87
2022-10-05T01:49:13.667Z,1014.82
2022-10-05T01:50:13.640Z,1014.84
2022-10-05T01:51:13.623Z,1014.91
2022-10-05T01:52:13.610Z,1014.84
2022-10-05T01:53:13.619Z,1014.90
2022-10-05T01:54:13.591Z,1014.87
2022-10-05T01:55:13.596Z,1014.86
2022-10-05T01:56:13.573Z,1014.92
2022-10-05T01:57:13.558Z,1014.87
2022-10-05T01:58:13.546Z,1014.93
2022-10-05T01:59:13.536Z,1014.94
2022-10-05T02:00:13.546Z,1015.01
2022-10-05T02:01:13.556Z,1015.01
2022-10-05T02:02:13.553Z,1015.02
2022-10-05T02:03:13.496Z,1015.02
2022-10-05T02:04:29.609Z,1015.02
2022-10-05T02:05:14.486Z,1015.03
2022-10-05T02:06:13.462Z,1015.07
2022-10-05T02:07:13.451Z,1015.08
2022-10-05T02:08:13.437Z,1015.09
2022-10-05T02:09:13.427Z,1015.11
2022-10-05T02:10:13.438Z,1015.11
2022-10-05T02:11:13.407Z,1015.09
2022-10-05T02:12:13.394Z,1015.11
2022-10-05T02:13:13.379Z,1015.05
2022-10-05T02:14:13.378Z,1015.07
2022-10-05T02:15:13.391Z,1015.04
2022-10-05T02:16:13.446Z,1015.04
2022-10-05T02:17:13.342Z,1014.98
2022-10-05T02:18:13.329Z,1015.02
2022-10-05T02:19:13.315Z,1015.05
2022-10-05T02:20:13.353Z,1015.04
2022-10-05T02:21:13.290Z,1015.03
2022-10-05T02:22:13.288Z,1014.99
2022-10-05T02:23:13.274Z,1015.02
2022-10-05T02:24:13.267Z,1015.07
2022-10-05T02:25:13.274Z,1015.05
2022-10-05T02:26:13.244Z,1015.01
2022-10-05T02:27:13.225Z,1015.00
2022-10-05T02:28:13.285Z,1015.01
2022-10-05T02:29:13.207Z,1015.00
2022-10-05T02:30:16.567Z,1015.01
2022-10-05T02:31:13.243Z,1015.01
2022-10-05T02:32:13.175Z,1014.99
2022-10-05T02:33:13.164Z,1015.00
2022-10-05T02:34:13.156Z,1015.03
2022-10-05T02:35:13.146Z,1015.01
2022-10-05T02:36:13.177Z,1015.02
2022-10-05T02:37:13.124Z,1015.00
2022-10-05T02:38:13.114Z,1014.97
2022-10-05T02:39:13.099Z,1015.04
2022-10-05T02:40:13.089Z,1015.00
2022-10-05T02:41:13.078Z,1014.99
2022-10-05T02:42:13.092Z,1015.01
2022-10-05T02:43:13.053Z,1014.97
2022-10-05T02:44:13.052Z,1014.98
2022-10-05T02:45:13.053Z,1014.93
2022-10-05T02:46:13.076Z,1014.92
2022-10-05T02:47:13.043Z,1014.98
2022-10-05T02:48:13.028Z,1014.96
2022-10-05T02:49:12.992Z,1014.97
2022-10-05T02:50:12.986Z,1014.96
2022-10-05T02:51:12.968Z,1014.96
2022-10-05T02:52:13.050Z,1014.94
2022-10-05T02:53:12.947Z,1014.92
2022-10-05T02:54:12.939Z,1014.93
2022-10-05T02:55:12.944Z,1014.91
2022-10-05T02:56:12.908Z,1014.92
2022-10-05T02:57:12.921Z,1014.92
2022-10-05T02:58:12.909Z,1014.88
2022-10-05T02:59:12.905Z,1014.89
2022-10-05T03:00:12.871Z,1014.91
2022-10-05T03:01:12.910Z,1014.91
2022-10-05T03:02:12.897Z,1014.92
2022-10-05T03:03:12.838Z,1014.84
2022-10-05T03:04:12.847Z,1014.88
2022-10-05T03:05:12.835Z,1014.89
2022-10-05T03:06:12.800Z,1014.87
2022-10-05T03:07:12.794Z,1014.80
2022-10-05T03:08:12.796Z,1014.89
2022-10-05T03:09:12.795Z,1014.86
2022-10-05T03:10:12.759Z,1014.84
2022-10-05T03:11:12.778Z,1014.78
2022-10-05T03:12:12.738Z,1014.71
2022-10-05T03:13:12.723Z,1014.79
2022-10-05T03:14:12.716Z,1014.75
2022-10-05T03:15:12.706Z,1014.80
2022-10-05T03:16:12.748Z,1014.82
2022-10-05T03:17:12.685Z,1014.86
2022-10-05T03:18:12.672Z,1014.75
2022-10-05T03:19:12.664Z,1014.71
2022-10-05T03:20:12.651Z,1014.78
2022-10-05T03:21:12.662Z,1014.72
2022-10-05T03:22:12.632Z,1014.70
2022-10-05T03:23:12.617Z,1014.72
2022-10-05T03:24:12.649Z,1014.73
2022-10-05T03:25:12.595Z,1014.66
2022-10-05T03:26:12.606Z,1014.63
2022-10-05T03:27:12.582Z,1014.64
2022-10-05T03:28:12.604Z,1014.70
2022-10-05T03:29:12.579Z,1014.68
2022-10-05T03:30:12.539Z,1014.71
2022-10-05T03:31:12.605Z,1014.59
2022-10-05T03:32:12.520Z,1014.60
2022-10-05T03:33:12.540Z,1014.50
2022-10-05T03:34:12.513Z,1014.57
2022-10-05T03:35:12.484Z,1014.54
2022-10-05T03:36:12.479Z,1014.53
2022-10-05T03:37:12.466Z,1014.49
2022-10-05T03:38:12.454Z,1014.43
2022-10-05T03:39:12.465Z,1014.47
2022-10-05T03:40:12.448Z,1014.46
2022-10-05T03:41:12.417Z,1014.51
2022-10-05T03:42:12.413Z,1014.51
2022-10-05T03:43:12.400Z,1014.50
2022-10-05T03:44:12.415Z,1014.47
2022-10-05T03:45:12.384Z,1014.48
2022-10-05T03:46:12.449Z,1014.45
2022-10-05T03:47:12.383Z,1014.49
2022-10-05T03:48:12.348Z,1014.47
2022-10-05T03:49:12.336Z,1014.50
2022-10-05T03:50:12.319Z,1014.46
2022-10-05T03:51:12.337Z,1014.45
2022-10-05T03:52:12.306Z,1014.36
2022-10-05T03:53:12.285Z,1014.36
2022-10-05T03:54:12.279Z,1014.33
2022-10-05T03:55:12.268Z,1014.28
2022-10-05T03:56:12.352Z,1014.26
2022-10-05T03:57:12.244Z,1014.28
2022-10-05T03:58:12.268Z,1014.29
2022-10-05T03:59:12.224Z,1014.24
2022-10-05T04:00:12.209Z,1014.28
2022-10-05T04:01:12.313Z,1014.34
2022-10-05T04:02:12.236Z,1014.30
2022-10-05T04:03:12.181Z,1014.26
2022-10-05T04:04:12.170Z,1014.27
2022-10-05T04:05:12.159Z,1014.25
2022-10-05T04:06:12.164Z,1014.25
2022-10-05T04:07:12.135Z,1014.27
2022-10-05T04:08:12.125Z,1014.31
2022-10-05T04:09:12.115Z,1014.24
2022-10-05T04:10:12.100Z,1014.28
2022-10-05T04:11:12.131Z,1014.27
2022-10-05T04:12:12.097Z,1014.30
2022-10-05T04:13:12.077Z,1014.29
2022-10-05T04:14:12.057Z,1014.29
2022-10-05T04:15:16.440Z,1014.27
2022-10-05T04:16:13.081Z,1014.27
2022-10-05T04:17:12.050Z,1014.28
2022-10-05T04:18:12.014Z,1014.28
2022-10-05T04:19:12.003Z,1014.22
2022-10-05T04:20:11.993Z,1014.18
2022-10-05T04:21:11.988Z,1014.28
2022-10-05T04:22:12.003Z,1014.22
2022-10-05T04:23:11.960Z,1014.19
2022-10-05T04:24:11.945Z,1014.21
2022-10-05T04:25:11.940Z,1014.27
2022-10-05T04:26:11.929Z,1014.28
2022-10-05T04:27:11.942Z,1014.28
2022-10-05T04:28:11.962Z,1014.25
2022-10-05T04:29:11.893Z,1014.23
2022-10-05T04:30:11.883Z,1014.26
2022-10-05T04:31:11.907Z,1014.33
2022-10-05T04:32:11.864Z,1014.29
2022-10-05T04:33:11.869Z,1014.31
2022-10-05T04:34:11.837Z,1014.31
2022-10-05T04:35:11.830Z,1014.32
2022-10-05T04:36:11.814Z,1014.31
2022-10-05T04:37:11.802Z,1014.21
2022-10-05T04:38:11.822Z,1014.23
2022-10-05T04:39:11.807Z,1014.20
2022-10-05T04:40:11.768Z,1014.29
2022-10-05T04:41:11.767Z,1014.29
2022-10-05T04:42:11.748Z,1014.28
2022-10-05T04:43:11.763Z,1014.34
2022-10-05T04:44:11.746Z,1014.42
2022-10-05T04:45:11.714Z,1014.37
2022-10-05T04:46:11.741Z,1014.36
2022-10-05T04:47:11.803Z,1014.31
2022-10-05T04:48:11.706Z,1014.34
2022-10-05T04:49:11.697Z,1014.29
2022-10-05T04:50:11.667Z,1014.33
2022-10-05T04:51:11.654Z,1014.37
2022-10-05T04:52:11.640Z,1014.35
2022-10-05T04:53:11.656Z,1014.34
2022-10-05T04:54:11.626Z,1014.35
2022-10-05T04:55:11.609Z,1014.27
2022-10-05T04:56:11.596Z,1014.35
2022-10-05T04:57:11.585Z,1014.33
2022-10-05T04:58:11.583Z,1014.33
2022-10-05T04:59:11.583Z,1014.39
2022-10-05T05:00:11.572Z,1014.33
2022-10-05T05:01:11.592Z,1014.31
2022-10-05T05:02:11.555Z,1014.31
2022-10-05T05:03:11.517Z,1014.31
2022-10-05T05:04:11.599Z,1014.21
2022-10-05T05:05:11.497Z,1014.27
2022-10-05T05:06:17.485Z,1014.21
2022-10-05T05:07:12.476Z,1014.21
2022-10-05T05:08:11.466Z,1014.17
2022-10-05T05:09:11.481Z,1014.18
2022-10-05T05:10:11.449Z,1014.23
2022-10-05T05:11:15.898Z,1014.21
2022-10-05T05:12:12.441Z,1014.22
2022-10-05T05:13:11.418Z,1014.29
2022-10-05T05:14:11.400Z,1014.28
2022-10-05T05:15:11.389Z,1014.30
2022-10-05T05:16:11.458Z,1014.32
2022-10-05T05:17:13.257Z,1014.26
2022-10-05T05:18:11.386Z,1014.31
2022-10-05T05:19:11.349Z,1014.29
2022-10-05T05:20:11.337Z,1014.29
2022-10-05T05:21:11.326Z,1014.29
2022-10-05T05:22:11.317Z,1014.24
2022-10-05T05:23:11.340Z,1014.32
2022-10-05T05:24:11.289Z,1014.29
2022-10-05T05:25:11.282Z,1014.31
2022-10-05T05:26:11.338Z,1014.30
2022-10-05T05:27:11.308Z,1014.29
2022-10-05T05:28:11.336Z,1014.23
2022-10-05T05:29:11.238Z,1014.27
2022-10-05T05:30:11.224Z,1014.19
2022-10-05T05:31:11.285Z,1014.22
2022-10-05T05:32:11.252Z,1014.18
2022-10-05T05:33:11.191Z,1014.14
2022-10-05T05:34:11.182Z,1014.14
2022-10-05T05:35:11.166Z,1014.10
2022-10-05T05:36:11.165Z,1014.04
2022-10-05T05:37:11.147Z,1014.05
2022-10-05T05:38:11.155Z,1013.98
2022-10-05T05:39:11.126Z,1014.03
2022-10-05T05:40:11.115Z,1014.00
2022-10-05T05:41:11.102Z,1013.90
2022-10-05T05:42:11.095Z,1013.90
2022-10-05T05:43:11.104Z,1013.96
2022-10-05T05:44:11.076Z,1014.03
2022-10-05T05:45:11.059Z,1014.04
2022-10-05T05:46:11.103Z,1014.06
2022-10-05T05:47:11.448Z,1013.99
2022-10-05T05:48:11.237Z,1014.03
2022-10-05T05:49:11.018Z,1014.04
2022-10-05T05:50:11.002Z,1014.01
2022-10-05T05:51:11.000Z,1014.01
2022-10-05T05:52:10.984Z,1014.07
2022-10-05T05:53:10.995Z,1014.08
2022-10-05T05:54:10.961Z,1014.07
2022-10-05T05:55:10.955Z,1014.08
2022-10-05T05:56:10.942Z,1014.19
2022-10-05T05:57:11.041Z,1014.17
2022-10-05T05:58:10.920Z,1014.16
2022-10-05T05:59:10.907Z,1014.10
2022-10-05T06:00:10.904Z,1014.08
2022-10-05T06:01:30.588Z,1014.08
2022-10-05T06:02:12.023Z,1014.03
2022-10-05T06:03:11.001Z,1014.06
2022-10-05T06:04:10.866Z,1014.11
2022-10-05T06:05:10.878Z,1014.05
2022-10-05T06:06:10.841Z,1014.11
2022-10-05T06:07:10.820Z,1014.07
2022-10-05T06:08:10.813Z,1014.07
2022-10-05T06:09:10.805Z,1014.12
2022-10-05T06:10:10.783Z,1014.11
2022-10-05T06:11:10.802Z,1014.15
2022-10-05T06:12:10.764Z,1014.10
2022-10-05T06:13:10.754Z,1014.17
2022-10-05T06:14:10.743Z,1014.11
2022-10-05T06:15:10.738Z,1014.08
2022-10-05T06:16:10.805Z,1014.13
2022-10-05T06:17:10.708Z,1014.15
2022-10-05T06:18:10.700Z,1014.05
2022-10-05T06:19:10.691Z,1014.09
2022-10-05T06:20:10.691Z,1014.03
2022-10-05T06:21:10.691Z,1014.05
2022-10-05T06:22:10.651Z,1014.17
2022-10-05T06:23:10.649Z,1014.12
2022-10-05T06:24:10.632Z,1014.19
2022-10-05T06:25:10.626Z,1014.14
2022-10-05T06:26:11.043Z,1014.18
2022-10-05T06:27:10.603Z,1014.24
2022-10-05T06:28:10.685Z,1014.22
2022-10-05T06:29:10.583Z,1014.29
2022-10-05T06:30:10.565Z,1014.31
2022-10-05T06:31:10.601Z,1014.26
2022-10-05T06:32:10.593Z,1014.29
2022-10-05T06:33:10.535Z,1014.27
2022-10-05T06:34:10.538Z,1014.25
2022-10-05T06:35:10.511Z,1014.29
2022-10-05T06:36:10.517Z,1014.32
2022-10-05T06:37:10.517Z,1014.30
2022-10-05T06:38:10.478Z,1014.34
2022-10-05T06:39:10.493Z,1014.30
2022-10-05T06:40:10.457Z,1014.29
2022-10-05T06:41:10.448Z,1014.30
2022-10-05T06:42:10.441Z,1014.33
2022-10-05T06:43:10.424Z,1014.38
2022-10-05T06:44:10.433Z,1014.31
2022-10-05T06:45:10.405Z,1014.32
2022-10-05T06:46:10.473Z,1014.35
2022-10-05T06:47:10.387Z,1014.35
2022-10-05T06:48:10.370Z,1014.29
2022-10-05T06:49:10.381Z,1014.31
2022-10-05T06:50:10.349Z,1014.29
2022-10-05T06:51:10.343Z,1014.29
2022-10-05T06:52:10.351Z,1014.28
2022-10-05T06:53:10.313Z,1014.26
2022-10-05T06:54:10.327Z,1014.28
2022-10-05T06:55:14.086Z,1014.27
2022-10-05T06:56:10.309Z,1014.28
2022-10-05T06:57:10.272Z,1014.25
2022-10-05T06:58:10.278Z,1014.24
2022-10-05T06:59:10.249Z,1014.25
2022-10-05T07:00:10.235Z,1014.27
2022-10-05T07:01:10.290Z,1014.30
2022-10-05T07:02:10.248Z,1014.28
2022-10-05T07:03:10.206Z,1014.25
2022-10-05T07:04:10.203Z,1014.25
2022-10-05T07:05:10.183Z,1014.25
2022-10-05T07:06:10.194Z,1014.22
2022-10-05T07:07:10.160Z,1014.20
2022-10-05T07:08:10.298Z,1014.29
2022-10-05T07:09:10.133Z,1014.23
2022-10-05T07:10:10.127Z,1014.29
2022-10-05T07:11:10.142Z,1014.28
2022-10-05T07:12:10.134Z,1014.24
2022-10-05T07:13:10.100Z,1014.30
2022-10-05T07:14:10.087Z,1014.28
2022-10-05T07:15:10.079Z,1014.32
2022-10-05T07:16:10.130Z,1014.37
2022-10-05T07:17:10.080Z,1014.38
2022-10-05T07:18:10.044Z,1014.46
2022-10-05T07:19:10.035Z,1014.46
2022-10-05T07:20:10.041Z,1014.45
2022-10-05T07:21:10.040Z,1014.44
2022-10-05T07:22:10.086Z,1014.43
2022-10-05T07:23:10.028Z,1014.41
2022-10-05T07:24:10.115Z,1014.40
2022-10-05T07:25:09.963Z,1014.40
2022-10-05T07:26:09.964Z,1014.40
2022-10-05T07:27:09.997Z,1014.41
2022-10-05T07:28:09.983Z,1014.45
2022-10-05T07:29:09.919Z,1014.41
2022-10-05T07:30:09.914Z,1014.41
2022-10-05T07:31:10.011Z,1014.42
2022-10-05T07:32:09.888Z,1014.42
2022-10-05T07:33:09.894Z,1014.42
2022-10-05T07:34:09.865Z,1014.46
2022-10-05T07:35:09.854Z,1014.42
2022-10-05T07:36:09.863Z,1014.35
2022-10-05T07:37:09.838Z,1014.38
2022-10-05T07:38:09.843Z,1014.37
2022-10-05T07:39:09.820Z,1014.34
2022-10-05T07:40:09.849Z,1014.34
2022-10-05T07:41:09.790Z,1014.30
2022-10-05T07:42:09.782Z,1014.31
2022-10-05T07:43:09.766Z,1014.34
2022-10-05T07:44:12.725Z,1014.41
2022-10-05T07:45:09.748Z,1014.39
2022-10-05T07:46:09.856Z,1014.42
2022-10-05T07:47:09.728Z,1014.46
2022-10-05T07:48:09.719Z,1014.45
2022-10-05T07:49:09.708Z,1014.41
2022-10-05T07:50:09.694Z,1014.39
2022-10-05T07:51:09.700Z,1014.34
2022-10-05T07:52:09.676Z,1014.29
2022-10-05T07:53:09.656Z,1014.33
2022-10-05T07:54:09.676Z,1014.38
2022-10-05T07:55:09.644Z,1014.30
2022-10-05T07:56:09.673Z,1014.37
2022-10-05T07:57:09.616Z,1014.40
2022-10-05T07:58:09.606Z,1014.40
2022-10-05T07:59:09.601Z,1014.41
2022-10-05T08:00:09.590Z,1014.44
2022-10-05T08:01:09.601Z,1014.46
2022-10-05T08:02:09.743Z,1014.42
2022-10-05T08:03:09.713Z,1014.35
2022-10-05T08:04:09.550Z,1014.35
2022-10-05T08:05:09.551Z,1014.36
2022-10-05T08:06:09.526Z,1014.35
2022-10-05T08:07:09.671Z,1014.35
2022-10-05T08:08:09.500Z,1014.37
2022-10-05T08:09:09.490Z,1014.27
2022-10-05T08:10:09.500Z,1014.32
2022-10-05T08:11:09.467Z,1014.31
2022-10-05T08:12:09.493Z,1014.24
2022-10-05T08:13:09.438Z,1014.37
2022-10-05T08:14:09.436Z,1014.29
2022-10-05T08:15:09.417Z,1014.22
2022-10-05T08:16:09.511Z,1014.18
2022-10-05T08:17:09.432Z,1014.24
2022-10-05T08:18:09.396Z,1014.13
2022-10-05T08:19:09.386Z,1014.12
2022-10-05T08:20:09.374Z,1014.12
2022-10-05T08:21:09.359Z,1014.09
2022-10-05T08:22:09.342Z,1014.04
2022-10-05T08:23:09.369Z,1014.06
2022-10-05T08:24:09.348Z,1014.11
2022-10-05T08:25:09.314Z,1014.03
2022-10-05T08:26:09.305Z,1014.07
2022-10-05T08:27:09.297Z,1014.08
2022-10-05T08:28:09.400Z,1013.99
2022-10-05T08:29:13.672Z,1014.01
2022-10-05T08:30:09.257Z,1013.99
2022-10-05T08:31:09.299Z,1013.99
2022-10-05T08:32:09.236Z,1013.98
2022-10-05T08:33:09.228Z,1014.02
2022-10-05T08:34:09.220Z,1013.98
2022-10-05T08:35:09.227Z,1013.97
2022-10-05T08:36:09.200Z,1013.95
2022-10-05T08:37:09.182Z,1013.98
2022-10-05T08:38:09.192Z,1013.96
2022-10-05T08:39:09.153Z,1013.97
2022-10-05T08:40:09.147Z,1013.97
2022-10-05T08:41:09.194Z,1013.90
2022-10-05T08:42:09.124Z,1013.93
2022-10-05T08:43:09.144Z,1013.89
2022-10-05T08:44:09.122Z,1013.93
2022-10-05T08:45:09.096Z,1013.91
2022-10-05T08:46:09.136Z,1013.88
2022-10-05T08:47:09.070Z,1013.89
2022-10-05T08:48:09.093Z,1013.80
2022-10-05T08:49:09.045Z,1013.76
2022-10-05T08:50:09.046Z,1013.72
2022-10-05T08:51:09.052Z,1013.75
2022-10-05T08:52:09.020Z,1013.76
2022-10-05T08:53:09.042Z,1013.74
2022-10-05T08:54:09.006Z,1013.78
2022-10-05T08:55:08.987Z,1013.79
2022-10-05T08:56:08.977Z,1013.80
2022-10-05T08:57:08.966Z,1013.82
2022-10-05T08:58:08.962Z,1013.79
2022-10-05T08:59:08.961Z,1013.76
2022-10-05T09:00:08.985Z,1013.75
2022-10-05T09:01:08.970Z,1013.70
2022-10-05T09:02:09.036Z,1013.69
2022-10-05T09:03:08.898Z,1013.77
2022-10-05T09:04:08.888Z,1013.70
2022-10-05T09:05:08.907Z,1013.70
2022-10-05T09:06:08.870Z,1013.70
2022-10-05T09:07:08.856Z,1013.67
2022-10-05T09:08:08.842Z,1013.63
2022-10-05T09:09:08.836Z,1013.59
2022-10-05T09:10:08.843Z,1013.68
2022-10-05T09:11:08.813Z,1013.70
2022-10-05T09:12:08.801Z,1013.78
2022-10-05T09:13:08.820Z,1013.78
2022-10-05T09:14:08.806Z,1013.83
2022-10-05T09:15:24.715Z,1013.77
2022-10-05T09:16:09.871Z,1013.78
2022-10-05T09:17:08.778Z,1013.74
2022-10-05T09:18:08.751Z,1013.79
2022-10-05T09:19:08.729Z,1013.73
2022-10-05T09:20:08.734Z,1013.71
2022-10-05T09:21:08.703Z,1013.70
2022-10-05T09:22:08.723Z,1013.73
2022-10-05T09:23:08.689Z,1013.76
2022-10-05T09:24:08.700Z,1013.70
2022-10-05T09:25:08.672Z,1013.78
2022-10-05T09:26:08.661Z,1013.75
2022-10-05T09:27:08.659Z,1013.77
2022-10-05T09:28:08.771Z,1013.67
2022-10-05T09:29:08.652Z,1013.64
2022-10-05T09:30:08.620Z,1013.63
2022-10-05T09:31:08.730Z,1013.68
2022-10-05T09:32:10.757Z,1013.69
2022-10-05T09:33:09.574Z,1013.64
2022-10-05T09:34:08.573Z,1013.66
2022-10-05T09:35:08.588Z,1013.72
2022-10-05T09:36:08.557Z,1013.71
2022-10-05T09:37:08.533Z,1013.70
2022-10-05T09:38:08.522Z,1013.70
2022-10-05T09:39:08.519Z,1013.66
2022-10-05T09:40:08.508Z,1013.64
2022-10-05T09:41:08.514Z,1013.68
2022-10-05T09:42:08.481Z,1013.61
2022-10-05T09:43:08.473Z,1013.67
2022-10-05T09:44:08.462Z,1013.62
2022-10-05T09:45:08.450Z,1013.68
2022-10-05T09:46:08.648Z,1013.61
2022-10-05T09:47:08.429Z,1013.61
2022-10-05T09:48:08.444Z,1013.57
2022-10-05T09:49:08.413Z,1013.53
2022-10-05T09:50:08.420Z,1013.57
2022-10-05T09:51:08.382Z,1013.56
2022-10-05T09:52:08.371Z,1013.62
2022-10-05T09:53:08.361Z,1013.52
2022-10-05T09:54:08.351Z,1013.49
2022-10-05T09:55:08.369Z,1013.45
2022-10-05T09:56:08.354Z,1013.50
2022-10-05T09:57:08.319Z,1013.42
2022-10-05T09:58:08.313Z,1013.48
2022-10-05T09:59:08.299Z,1013.45
2022-10-05T10:00:08.353Z,1013.46
2022-10-05T10:01:16.040Z,1013.40
2022-10-05T10:02:09.337Z,1013.42
2022-10-05T10:03:08.369Z,1013.39
2022-10-05T10:04:08.359Z,1013.33
2022-10-05T10:05:08.232Z,1013.37
2022-10-05T10:06:08.260Z,1013.38
2022-10-05T10:07:08.218Z,1013.36
2022-10-05T10:08:08.203Z,1013.41
2022-10-05T10:09:08.190Z,1013.35
2022-10-05T10:10:08.184Z,1013.38
2022-10-05T10:11:08.187Z,1013.37
2022-10-05T10:12:08.155Z,1013.39
2022-10-05T10:13:08.146Z,1013.33
2022-10-05T10:14:08.133Z,1013.42
2022-10-05T10:15:08.119Z,1013.38
2022-10-05T10:16:08.251Z,1013.38
2022-10-05T10:17:08.099Z,1013.39
2022-10-05T10:18:08.091Z,1013.44
2022-10-05T10:19:08.072Z,1013.42
2022-10-05T10:20:08.099Z,1013.45
2022-10-05T10:21:08.076Z,1013.42
2022-10-05T10:22:08.041Z,1013.48
2022-10-05T10:23:08.032Z,1013.52
2022-10-05T10:24:08.025Z,1013.58
2022-10-05T10:25:08.015Z,1013.61
2022-10-05T10:26:08.017Z,1013.50
2022-10-05T10:27:07.988Z,1013.60
2022-10-05T10:28:08.077Z,1013.60
2022-10-05T10:29:07.985Z,1013.59
2022-10-05T10:30:08.067Z,1013.65
2022-10-05T10:31:08.014Z,1013.64
2022-10-05T10:32:07.934Z,1013.70
2022-10-05T10:33:07.929Z,1013.63
2022-10-05T10:34:07.916Z,1013.63
2022-10-05T10:35:07.898Z,1013.56
2022-10-05T10:36:07.932Z,1013.70
2022-10-05T10:37:07.884Z,1013.68
2022-10-05T10:38:07.872Z,1013.66
2022-10-05T10:39:07.857Z,1013.61
2022-10-05T10:40:07.964Z,1013.61
2022-10-05T10:41:07.851Z,1013.67
2022-10-05T10:42:07.841Z,1013.72
2022-10-05T10:43:07.828Z,1013.62
2022-10-05T10:44:07.801Z,1013.65
2022-10-05T10:45:07.790Z,1013.65
2022-10-05T10:46:07.816Z,1013.67
2022-10-05T10:47:07.769Z,1013.66
2022-10-05T10:48:07.783Z,1013.63
2022-10-05T10:49:07.744Z,1013.62
2022-10-05T10:50:07.744Z,1013.58
2022-10-05T10:51:07.733Z,1013.58
2022-10-05T10:52:07.740Z,1013.60
2022-10-05T10:53:07.725Z,1013.60
2022-10-05T10:54:07.697Z,1013.56
2022-10-05T10:55:07.687Z,1013.61
2022-10-05T10:56:07.692Z,1013.58
2022-10-05T10:57:07.663Z,1013.60
2022-10-05T10:58:11.189Z,1013.52
2022-10-05T10:59:08.665Z,1013.50
2022-10-05T11:00:07.637Z,1013.59
2022-10-05T11:01:07.617Z,1013.50
2022-10-05T11:02:07.688Z,1013.51
2022-10-05T11:03:07.628Z,1013.59
2022-10-05T11:04:07.612Z,1013.54
2022-10-05T11:05:07.578Z,1013.57
2022-10-05T11:06:07.576Z,1013.52
2022-10-05T11:07:07.582Z,1013.55
2022-10-05T11:08:07.564Z,1013.57
2022-10-05T11:09:07.551Z,1013.53
2022-10-05T11:10:07.564Z,1013.46
2022-10-05T11:11:07.508Z,1013.51
2022-10-05T11:12:07.612Z,1013.49
2022-10-05T11:13:07.489Z,1013.45
2022-10-05T11:14:07.477Z,1013.50
2022-10-05T11:15:07.470Z,1013.45
2022-10-05T11:17:07.449Z,1013.42
2022-10-05T11:18:07.434Z,1013.41
2022-10-05T11:19:07.421Z,1013.39
2022-10-05T11:20:07.525Z,1013.37
2022-10-05T11:21:07.426Z,1013.34
2022-10-05T11:22:07.389Z,1013.34
2022-10-05T11:23:07.380Z,1013.25
2022-10-05T11:24:07.397Z,1013.23
2022-10-05T11:25:07.357Z,1013.28
2022-10-05T11:26:07.376Z,1013.24
2022-10-05T11:27:07.345Z,1013.27
2022-10-05T11:28:07.405Z,1013.25
2022-10-05T11:29:07.310Z,1013.23
2022-10-05T11:30:07.326Z,1013.21
2022-10-05T11:31:07.369Z,1013.23
2022-10-05T11:32:07.288Z,1013.11
2022-10-05T11:33:07.278Z,1013.12
2022-10-05T11:34:07.261Z,1013.10
2022-10-05T11:35:07.278Z,1013.10
2022-10-05T11:36:07.237Z,1013.12
2022-10-05T11:37:07.236Z,1013.14
2022-10-05T11:38:07.215Z,1013.23
2022-10-05T11:39:07.207Z,1013.13
2022-10-05T11:40:07.267Z,1013.16
2022-10-05T11:41:07.185Z,1013.14
2022-10-05T11:42:07.175Z,1013.14
2022-10-05T11:43:07.166Z,1013.16
2022-10-05T11:44:07.358Z,1013.08
2022-10-05T11:45:07.180Z,1013.09
2022-10-05T11:46:07.165Z,1013.03
2022-10-05T11:47:07.129Z,1013.08
2022-10-05T11:48:07.136Z,1013.06
2022-10-05T11:49:07.094Z,1013.04
2022-10-05T11:50:07.089Z,1013.04
2022-10-05T11:51:07.077Z,1013.03
2022-10-05T11:52:07.066Z,1012.98
2022-10-05T11:53:07.123Z,1013.03
2022-10-05T11:54:07.067Z,1012.99
2022-10-05T11:55:11.628Z,1012.98
2022-10-05T11:56:08.048Z,1012.92
2022-10-05T11:57:07.012Z,1012.96
2022-10-05T11:58:06.997Z,1012.88
2022-10-05T11:59:07.030Z,1012.95
2022-10-05T12:00:06.981Z,1012.90
2022-10-05T12:01:06.988Z,1012.91
2022-10-05T12:02:06.955Z,1012.97
2022-10-05T12:03:07.105Z,1012.92
2022-10-05T12:04:07.037Z,1012.96
2022-10-05T12:05:06.944Z,1012.92
2022-10-05T12:06:06.912Z,1012.96